createdAt,value
2022-10-26T07:42:26.540Z,95.94
2022-10-26T07:43:26.499Z,95.94
2022-10-26T07:44:26.501Z,95.63
2022-10-26T07:45:26.478Z,95.94
2022-10-26T07:46:26.464Z,95.42
2022-10-26T07:47:26.452Z,96.03
2022-10-26T07:48:26.436Z,95.73
2022-10-26T07:49:27.912Z,96.23
2022-10-26T07:50:26.413Z,95.73
2022-10-26T07:51:26.407Z,95.94
2022-10-26T07:52:26.396Z,95.73
2022-10-26T07:53:28.011Z,95.83
2022-10-26T07:54:26.379Z,95.83
2022-10-26T07:55:26.363Z,95.42
2022-10-26T07:56:26.396Z,95.73
2022-10-26T07:57:26.335Z,95.63
2022-10-26T07:58:26.353Z,95.73
2022-10-26T07:59:26.332Z,96.03
2022-10-26T08:00:26.363Z,95.94
2022-10-26T08:01:26.459Z,95.83
2022-10-26T08:02:26.300Z,95.79
2022-10-26T08:03:26.273Z,95.58
2022-10-26T08:04:26.262Z,95.07
2022-10-26T08:05:26.324Z,95.28
2022-10-26T08:06:26.241Z,94.83
2022-10-26T08:07:26.239Z,94.22
2022-10-26T08:08:26.210Z,94.22
2022-10-26T08:09:26.197Z,93.71
2022-10-26T08:10:26.207Z,93.67
2022-10-26T08:11:26.184Z,93.77
2022-10-26T08:12:26.169Z,92.96
2022-10-26T08:13:26.156Z,93.42
2022-10-26T08:14:26.167Z,92.96
2022-10-26T08:15:26.151Z,92.51
2022-10-26T08:16:26.125Z,92.61
2022-10-26T08:17:26.120Z,92.71
2022-10-26T08:18:26.104Z,91.60
2022-10-26T08:19:26.086Z,92.00
2022-10-26T08:20:26.095Z,91.15
2022-10-26T08:21:36.573Z,91.25
2022-10-26T08:22:27.051Z,90.95
2022-10-26T08:23:26.080Z,90.54
2022-10-26T08:24:26.245Z,89.89
2022-10-26T08:25:26.173Z,89.94
2022-10-26T08:26:26.147Z,89.48
2022-10-26T08:27:26.003Z,88.88
2022-10-26T08:28:25.982Z,88.57
2022-10-26T08:29:25.978Z,88.48
2022-10-26T08:30:26.032Z,88.37
2022-10-26T08:31:25.951Z,88.53
2022-10-26T08:32:25.946Z,88.84
2022-10-26T08:33:25.934Z,89.34
2022-10-26T08:34:25.918Z,88.74
2022-10-26T08:35:25.918Z,88.23
2022-10-26T08:36:25.892Z,87.99
2022-10-26T08:37:25.889Z,88.23
2022-10-26T08:38:25.879Z,88.02
2022-10-26T08:39:25.900Z,87.79
2022-10-26T08:40:25.863Z,87.48
2022-10-26T08:41:25.848Z,87.88
2022-10-26T08:42:25.833Z,87.34
2022-10-26T08:43:25.817Z,86.73
2022-10-26T08:44:25.808Z,86.59
2022-10-26T08:45:30.515Z,85.88
2022-10-26T08:46:26.801Z,85.58
2022-10-26T08:47:25.769Z,85.54
2022-10-26T08:48:25.758Z,84.73
2022-10-26T08:49:25.747Z,84.39
2022-10-26T08:50:25.756Z,84.49
2022-10-26T08:51:25.725Z,83.78
2022-10-26T08:52:25.720Z,83.58
2022-10-26T08:53:25.708Z,82.81
2022-10-26T08:54:25.697Z,82.98
2022-10-26T08:55:25.706Z,83.48
2022-10-26T08:56:25.676Z,83.58
2022-10-26T08:57:25.666Z,82.78
2022-10-26T08:58:25.654Z,82.81
2022-10-26T08:59:25.639Z,84.12
2022-10-26T09:00:25.649Z,82.71
2022-10-26T09:01:25.806Z,82.81
2022-10-26T09:02:25.625Z,84.03
2022-10-26T09:03:25.612Z,84.03
2022-10-26T09:04:25.588Z,83.92
2022-10-26T09:05:25.592Z,83.42
2022-10-26T09:06:25.560Z,83.92
2022-10-26T09:07:25.558Z,83.86
2022-10-26T09:08:25.538Z,83.62
2022-10-26T09:09:25.526Z,84.77
2022-10-26T09:10:25.515Z,84.73
2022-10-26T09:11:25.517Z,84.63
2022-10-26T09:12:25.498Z,84.57
2022-10-26T09:13:25.482Z,84.37
2022-10-26T09:14:25.479Z,84.57
2022-10-26T09:15:25.468Z,84.43
2022-10-26T09:16:25.549Z,83.62
2022-10-26T09:17:25.436Z,84.63
2022-10-26T09:18:25.455Z,84.43
2022-10-26T09:19:25.413Z,84.12
2022-10-26T09:20:25.411Z,84.12
2022-10-26T09:21:25.411Z,84.03
2022-10-26T09:22:25.385Z,83.92
2022-10-26T09:23:25.375Z,83.42
2022-10-26T09:24:25.359Z,83.42
2022-10-26T09:25:25.357Z,84.12
2022-10-26T09:26:25.349Z,82.98
2022-10-26T09:27:25.346Z,83.88
2022-10-26T09:28:25.324Z,83.78
2022-10-26T09:29:25.312Z,83.74
2022-10-26T09:30:25.323Z,82.50
2022-10-26T09:31:25.308Z,81.99
2022-10-26T09:32:25.269Z,81.04
2022-10-26T09:33:25.265Z,80.44
2022-10-26T09:34:25.296Z,80.70
2022-10-26T09:35:25.309Z,80.36
2022-10-26T09:36:25.248Z,79.72
2022-10-26T09:37:25.258Z,78.67
2022-10-26T09:38:25.212Z,78.27
2022-10-26T09:39:26.194Z,77.97
2022-10-26T09:40:25.180Z,78.64
2022-10-26T09:41:27.067Z,77.39
2022-10-26T09:42:26.164Z,76.69
2022-10-26T09:43:25.166Z,76.15
2022-10-26T09:44:25.142Z,75.25
2022-10-26T09:45:25.125Z,76.09
2022-10-26T09:46:25.126Z,75.49
2022-10-26T09:47:25.114Z,75.79
2022-10-26T09:48:25.090Z,76.02
2022-10-26T09:49:25.132Z,74.91
2022-10-26T09:50:25.104Z,74.57
2022-10-26T09:51:25.079Z,74.18
2022-10-26T09:52:25.057Z,74.24
2022-10-26T09:53:25.043Z,73.13
2022-10-26T09:54:25.024Z,72.43
2022-10-26T09:55:25.015Z,72.09
2022-10-26T09:56:25.018Z,73.10
2022-10-26T09:57:24.993Z,73.90
2022-10-26T09:58:24.985Z,73.10
2022-10-26T09:59:24.967Z,74.10
2022-10-26T10:00:25.056Z,73.36
2022-10-26T10:01:25.063Z,71.66
2022-10-26T10:02:24.981Z,71.77
2022-10-26T10:03:24.938Z,72.66
2022-10-26T10:04:24.938Z,71.73
2022-10-26T10:05:45.765Z,71.73
2022-10-26T10:06:25.925Z,70.69
2022-10-26T10:07:24.888Z,70.76
2022-10-26T10:08:24.879Z,70.86
2022-10-26T10:09:24.878Z,69.36
2022-10-26T10:10:24.849Z,69.86
2022-10-26T10:11:24.864Z,71.16
2022-10-26T10:12:24.832Z,70.56
2022-10-26T10:13:24.819Z,70.23
2022-10-26T10:14:24.843Z,70.43
2022-10-26T10:15:24.799Z,68.99
2022-10-26T10:16:24.824Z,69.36
2022-10-26T10:17:24.771Z,68.66
2022-10-26T10:18:24.766Z,68.93
2022-10-26T10:19:24.750Z,67.53
2022-10-26T10:20:24.750Z,68.10
2022-10-26T10:21:24.730Z,67.53
2022-10-26T10:22:24.757Z,67.30
2022-10-26T10:23:24.712Z,67.40
2022-10-26T10:24:24.698Z,67.40
2022-10-26T10:25:24.764Z,67.16
2022-10-26T10:26:24.683Z,67.46
2022-10-26T10:27:24.676Z,66.36
2022-10-26T10:28:24.707Z,65.97
2022-10-26T10:29:24.645Z,66.47
2022-10-26T10:30:24.675Z,66.56
2022-10-26T10:31:24.638Z,67.40
2022-10-26T10:32:24.648Z,66.96
2022-10-26T10:33:24.596Z,67.60
2022-10-26T10:34:24.617Z,67.10
2022-10-26T10:35:24.577Z,67.07
2022-10-26T10:36:24.579Z,67.36
2022-10-26T10:37:24.581Z,66.60
2022-10-26T10:38:24.581Z,67.46
2022-10-26T10:40:24.520Z,67.57
2022-10-26T10:41:24.506Z,66.53
2022-10-26T10:42:24.534Z,66.43
2022-10-26T10:43:24.489Z,66.43
2022-10-26T10:44:24.481Z,65.73
2022-10-26T10:45:24.483Z,66.24
2022-10-26T10:46:24.452Z,65.53
2022-10-26T10:47:24.465Z,64.94
2022-10-26T10:48:24.436Z,66.53
2022-10-26T10:49:24.418Z,66.13
2022-10-26T10:50:24.425Z,65.23
2022-10-26T10:51:24.396Z,65.61
2022-10-26T10:52:24.457Z,65.50
2022-10-26T10:53:24.442Z,65.73
2022-10-26T10:54:24.389Z,67.30
2022-10-26T10:55:24.359Z,66.40
2022-10-26T10:56:24.361Z,65.80
2022-10-26T10:57:24.364Z,65.91
2022-10-26T10:58:24.326Z,65.01
2022-10-26T10:59:24.316Z,64.90
2022-10-26T11:00:24.316Z,65.73
2022-10-26T11:01:24.438Z,67.43
2022-10-26T11:02:24.394Z,67.33
2022-10-26T11:03:25.932Z,66.70
2022-10-26T11:04:24.304Z,66.37
2022-10-26T11:05:27.191Z,66.14
2022-10-26T11:06:24.261Z,65.44
2022-10-26T11:07:24.241Z,64.75
2022-10-26T11:08:24.241Z,64.64
2022-10-26T11:09:24.225Z,66.04
2022-10-26T11:10:24.217Z,65.24
2022-10-26T11:11:24.224Z,64.42
2022-10-26T11:12:24.241Z,64.18
2022-10-26T11:13:24.158Z,63.98
2022-10-26T11:14:24.175Z,63.36
2022-10-26T11:15:24.157Z,63.36
2022-10-26T11:16:24.132Z,63.66
2022-10-26T11:17:24.126Z,62.96
2022-10-26T11:18:24.145Z,63.92
2022-10-26T11:19:24.098Z,63.72
2022-10-26T11:20:24.089Z,65.08
2022-10-26T11:21:24.124Z,65.80
2022-10-26T11:22:24.107Z,66.93
2022-10-26T11:23:24.111Z,67.26
2022-10-26T11:24:24.036Z,67.57
2022-10-26T11:25:24.046Z,67.36
2022-10-26T11:26:24.036Z,67.33
2022-10-26T11:27:24.021Z,67.86
2022-10-26T11:28:24.005Z,67.46
2022-10-26T11:29:23.994Z,67.16
2022-10-26T11:30:23.982Z,68.06
2022-10-26T11:31:23.990Z,68.26
2022-10-26T11:32:23.963Z,68.16
2022-10-26T11:33:23.943Z,67.40
2022-10-26T11:34:23.943Z,67.76
2022-10-26T11:35:23.923Z,68.06
2022-10-26T11:36:23.924Z,68.03
2022-10-26T11:37:23.919Z,65.91
2022-10-26T11:38:33.127Z,64.58
2022-10-26T11:39:24.869Z,62.35
2022-10-26T11:40:23.868Z,62.92
2022-10-26T11:41:23.854Z,63.02
2022-10-26T11:42:23.890Z,61.60
2022-10-26T11:43:23.838Z,61.64
2022-10-26T11:44:23.835Z,60.44
2022-10-26T11:45:23.806Z,60.12
2022-10-26T11:46:23.804Z,59.69
2022-10-26T11:47:23.802Z,59.56
2022-10-26T11:48:23.772Z,59.07
2022-10-26T11:49:23.782Z,59.04
2022-10-26T11:50:23.759Z,58.51
2022-10-26T11:51:23.754Z,57.00
2022-10-26T11:52:23.762Z,57.79
2022-10-26T11:53:23.739Z,57.14
2022-10-26T11:54:23.729Z,56.85
2022-10-26T11:55:23.714Z,56.15
2022-10-26T11:56:23.691Z,55.73
2022-10-26T11:57:23.733Z,56.13
2022-10-26T11:58:23.704Z,56.13
2022-10-26T11:59:23.834Z,55.53
2022-10-26T12:00:23.644Z,55.83
2022-10-26T12:01:23.661Z,55.90
2022-10-26T12:02:23.632Z,56.23
2022-10-26T12:03:23.621Z,56.20
2022-10-26T12:04:23.604Z,56.10
2022-10-26T12:05:23.586Z,54.81
2022-10-26T12:06:23.579Z,55.21
2022-10-26T12:07:23.583Z,54.94
2022-10-26T12:08:23.561Z,55.01
2022-10-26T12:09:23.548Z,55.04
2022-10-26T12:10:23.865Z,55.06
2022-10-26T12:11:23.530Z,56.23
2022-10-26T12:12:23.530Z,56.13
2022-10-26T12:13:23.499Z,56.13
2022-10-26T12:14:23.508Z,56.23
2022-10-26T12:15:30.739Z,54.94
2022-10-26T12:16:24.486Z,55.04
2022-10-26T12:17:23.467Z,56.62
2022-10-26T12:18:36.830Z,55.93
2022-10-26T12:19:24.487Z,55.83
2022-10-26T12:20:23.424Z,56.15
2022-10-26T12:21:23.420Z,56.05
2022-10-26T12:22:23.454Z,56.25
2022-10-26T12:23:34.106Z,55.98
2022-10-26T12:24:24.391Z,56.68
2022-10-26T12:25:23.376Z,56.68
2022-10-26T12:26:23.363Z,55.98
2022-10-26T12:27:23.353Z,55.58
2022-10-26T12:28:23.359Z,56.60
2022-10-26T12:29:23.329Z,56.60
2022-10-26T12:30:23.342Z,56.73
2022-10-26T12:31:23.322Z,57.13
2022-10-26T12:32:23.316Z,56.73
2022-10-26T12:33:23.288Z,57.03
2022-10-26T12:34:23.278Z,56.73
2022-10-26T12:35:23.270Z,56.73
2022-10-26T12:36:23.258Z,56.85
2022-10-26T12:37:23.252Z,57.35
2022-10-26T12:38:23.252Z,57.55
2022-10-26T12:39:23.220Z,58.34
2022-10-26T12:40:23.215Z,58.84
2022-10-26T12:41:23.344Z,58.44
2022-10-26T12:42:23.204Z,58.07
2022-10-26T12:43:23.185Z,58.47
2022-10-26T12:44:23.163Z,58.47
2022-10-26T12:45:23.149Z,58.27
2022-10-26T12:46:23.181Z,60.39
2022-10-26T12:47:23.159Z,60.19
2022-10-26T12:48:34.763Z,60.39
2022-10-26T12:49:24.118Z,60.28
2022-10-26T12:50:23.139Z,60.12
2022-10-26T12:51:23.100Z,60.49
2022-10-26T12:52:23.096Z,60.28
2022-10-26T12:53:23.815Z,60.28
2022-10-26T12:54:23.060Z,60.28
2022-10-26T12:55:23.047Z,59.69
2022-10-26T12:56:23.031Z,59.66
2022-10-26T12:57:23.046Z,58.90
2022-10-26T12:58:23.016Z,58.80
2022-10-26T12:59:22.997Z,59.69
2022-10-26T13:00:23.074Z,60.09
2022-10-26T13:01:23.056Z,59.62
2022-10-26T13:02:22.998Z,60.02
2022-10-26T13:03:22.959Z,59.22
2022-10-26T13:04:22.970Z,59.05
2022-10-26T13:05:22.944Z,59.75
2022-10-26T13:06:22.920Z,60.35
2022-10-26T13:07:22.980Z,60.25
2022-10-26T13:08:22.898Z,60.64
2022-10-26T13:09:22.889Z,60.84
2022-10-26T13:10:22.894Z,60.71
2022-10-26T13:11:22.871Z,59.92
2022-10-26T13:12:22.867Z,58.67
2022-10-26T13:13:22.874Z,59.17
2022-10-26T13:14:22.844Z,58.87
2022-10-26T13:15:22.827Z,57.95
2022-10-26T13:16:22.819Z,59.04
2022-10-26T13:17:22.921Z,58.54
2022-10-26T13:18:22.810Z,57.65
2022-10-26T13:19:24.043Z,58.47
2022-10-26T13:20:22.776Z,57.98
2022-10-26T13:21:22.855Z,57.48
2022-10-26T13:22:22.755Z,57.18
2022-10-26T13:23:22.748Z,57.58
2022-10-26T13:24:22.735Z,57.28
2022-10-26T13:25:22.719Z,57.08
2022-10-26T13:26:22.717Z,56.38
2022-10-26T13:27:22.706Z,56.98
2022-10-26T13:28:22.712Z,56.81
2022-10-26T13:29:22.676Z,55.42
2022-10-26T13:30:22.659Z,55.10
2022-10-26T13:31:22.652Z,56.68
2022-10-26T13:32:22.660Z,56.32
2022-10-26T13:33:22.626Z,55.22
2022-10-26T13:34:22.645Z,56.41
2022-10-26T13:35:22.607Z,56.41
2022-10-26T13:36:22.599Z,56.02
2022-10-26T13:37:22.604Z,56.04
2022-10-26T13:38:22.619Z,56.81
2022-10-26T13:39:22.567Z,56.51
2022-10-26T13:40:22.565Z,57.04
2022-10-26T13:41:22.560Z,56.64
2022-10-26T13:42:22.592Z,56.84
2022-10-26T13:43:22.540Z,56.84
2022-10-26T13:44:25.181Z,56.34
2022-10-26T13:45:22.514Z,56.24
2022-10-26T13:46:22.501Z,56.94
2022-10-26T13:47:22.516Z,54.93
2022-10-26T13:48:22.484Z,55.52
2022-10-26T13:49:22.471Z,55.42
2022-10-26T13:50:22.473Z,55.32
2022-10-26T13:51:22.453Z,54.33
2022-10-26T13:52:22.452Z,55.52
2022-10-26T13:53:22.424Z,54.82
2022-10-26T13:54:22.408Z,54.53
2022-10-26T13:55:22.401Z,54.03
2022-10-26T13:56:22.385Z,55.10
2022-10-26T13:57:22.387Z,56.38
2022-10-26T13:58:22.368Z,55.17
2022-10-26T13:59:22.380Z,55.17
2022-10-26T14:00:22.342Z,54.35
2022-10-26T14:01:22.402Z,53.85
2022-10-26T14:02:22.330Z,54.94
2022-10-26T14:03:22.299Z,54.05
2022-10-26T14:04:22.297Z,53.45
2022-10-26T14:05:22.284Z,53.45
2022-10-26T14:06:22.309Z,53.38
2022-10-26T14:07:22.278Z,53.19
2022-10-26T14:08:22.249Z,54.28
2022-10-26T14:09:22.241Z,54.38
2022-10-26T14:10:22.227Z,54.28
2022-10-26T14:11:22.223Z,54.08
2022-10-26T14:12:22.227Z,53.98
2022-10-26T14:13:22.194Z,54.00
2022-10-26T14:14:22.190Z,53.41
2022-10-26T14:15:22.182Z,54.90
2022-10-26T14:16:22.168Z,54.00
2022-10-26T14:17:22.160Z,54.30
2022-10-26T14:18:22.145Z,53.70
2022-10-26T14:19:22.132Z,53.61
2022-10-26T14:20:22.116Z,54.80
2022-10-26T14:21:22.107Z,54.50
2022-10-26T14:22:23.211Z,54.33
2022-10-26T14:23:22.085Z,54.72
2022-10-26T14:24:27.481Z,53.56
2022-10-26T14:25:31.126Z,53.86
2022-10-26T14:26:23.058Z,54.58
2022-10-26T14:27:22.055Z,54.97
2022-10-26T14:28:22.043Z,55.30
2022-10-26T14:29:22.025Z,55.23
2022-10-26T14:30:23.292Z,56.32
2022-10-26T14:31:22.002Z,56.45
2022-10-26T14:32:22.000Z,56.42
2022-10-26T14:33:22.000Z,56.42
2022-10-26T14:34:21.966Z,56.55
2022-10-26T14:35:21.958Z,56.85
2022-10-26T14:36:21.942Z,56.77
2022-10-26T14:37:21.945Z,56.57
2022-10-26T14:38:21.948Z,57.07
2022-10-26T14:39:21.906Z,59.17
2022-10-26T14:40:21.895Z,56.57
2022-10-26T14:41:21.893Z,57.57
2022-10-26T14:42:21.890Z,56.90
2022-10-26T14:43:21.868Z,56.81
2022-10-26T14:44:21.859Z,57.20
2022-10-26T14:45:29.476Z,57.73
2022-10-26T14:46:22.836Z,57.23
2022-10-26T14:47:21.840Z,56.33
2022-10-26T14:48:21.813Z,57.53
2022-10-26T14:49:21.795Z,57.73
2022-10-26T14:50:21.791Z,59.45
2022-10-26T14:51:21.774Z,58.45
2022-10-26T14:52:21.776Z,59.15
2022-10-26T14:53:21.760Z,57.76
2022-10-26T14:54:21.770Z,57.46
2022-10-26T14:55:21.739Z,59.25
2022-10-26T14:56:21.723Z,60.58
2022-10-26T14:57:21.734Z,60.65
2022-10-26T14:58:25.431Z,60.78
2022-10-26T14:59:22.696Z,59.48
2022-10-26T15:00:21.675Z,58.98
2022-10-26T15:01:21.915Z,59.21
2022-10-26T15:02:21.720Z,59.48
2022-10-26T15:03:21.644Z,59.21
2022-10-26T15:04:21.649Z,58.68
2022-10-26T15:05:21.626Z,58.91
2022-10-26T15:06:21.609Z,59.11
2022-10-26T15:07:21.617Z,58.81
2022-10-26T15:08:33.604Z,58.91
2022-10-26T15:09:22.579Z,59.31
2022-10-26T15:10:21.582Z,58.51
2022-10-26T15:11:21.663Z,58.91
2022-10-26T15:12:21.613Z,59.01
2022-10-26T15:13:22.358Z,59.51
2022-10-26T15:14:21.625Z,60.11
2022-10-26T15:16:21.510Z,58.71
2022-10-26T15:17:21.504Z,59.21
2022-10-26T15:18:21.484Z,61.80
2022-10-26T15:19:21.477Z,61.10
2022-10-26T15:20:21.455Z,61.51
2022-10-26T15:21:21.453Z,61.43
2022-10-26T15:22:21.586Z,60.63
2022-10-26T15:23:21.421Z,61.43
2022-10-26T15:24:21.410Z,63.33
2022-10-26T15:25:21.417Z,63.53
2022-10-26T15:26:21.427Z,63.56
2022-10-26T15:27:21.402Z,62.86
2022-10-26T15:28:21.519Z,63.56
2022-10-26T15:29:21.373Z,63.96
2022-10-26T15:30:21.341Z,63.96
2022-10-26T15:31:21.347Z,64.16
2022-10-26T15:32:21.321Z,63.76
2022-10-26T15:33:21.336Z,64.39
2022-10-26T15:34:21.299Z,64.66
2022-10-26T15:35:21.301Z,64.26
2022-10-26T15:36:21.294Z,64.29
2022-10-26T15:37:21.355Z,64.69
2022-10-26T15:38:21.263Z,64.99
2022-10-26T15:39:21.245Z,65.59
2022-10-26T15:40:21.303Z,65.39
2022-10-26T15:41:21.249Z,65.39
2022-10-26T15:42:21.242Z,65.39
2022-10-26T15:43:21.218Z,65.89
2022-10-26T15:44:21.200Z,66.29
2022-10-26T15:45:21.184Z,67.63
2022-10-26T15:46:21.171Z,67.13
2022-10-26T15:47:21.181Z,67.32
2022-10-26T15:48:21.150Z,67.52
2022-10-26T15:49:21.164Z,67.63
2022-10-26T15:50:21.123Z,67.43
2022-10-26T15:51:21.123Z,67.76
2022-10-26T15:52:21.100Z,66.05
2022-10-26T15:53:21.115Z,66.55
2022-10-26T15:54:21.079Z,66.25
2022-10-26T15:55:21.082Z,66.66
2022-10-26T15:56:21.066Z,67.59
2022-10-26T15:57:21.609Z,67.49
2022-10-26T15:58:21.058Z,67.25
2022-10-26T15:59:21.026Z,65.89
2022-10-26T16:00:21.029Z,65.39
2022-10-26T16:01:21.159Z,65.39
2022-10-26T16:02:21.101Z,64.12
2022-10-26T16:03:20.982Z,65.52
2022-10-26T16:04:20.967Z,66.09
2022-10-26T16:05:21.026Z,67.62
2022-10-26T16:06:20.974Z,68.73
2022-10-26T16:07:20.970Z,67.82
2022-10-26T16:08:21.615Z,67.72
2022-10-26T16:09:20.926Z,67.62
2022-10-26T16:10:20.920Z,67.55
2022-10-26T16:11:20.913Z,68.35
2022-10-26T16:12:20.898Z,68.05
2022-10-26T16:13:20.874Z,67.96
2022-10-26T16:14:20.885Z,68.99
2022-10-26T16:15:20.865Z,69.56
2022-10-26T16:16:20.838Z,69.86
2022-10-26T16:17:20.842Z,69.69
2022-10-26T16:18:20.817Z,70.39
2022-10-26T16:19:36.090Z,69.79
2022-10-26T16:20:21.797Z,69.73
2022-10-26T16:21:20.787Z,70.43
2022-10-26T16:22:20.780Z,70.43
2022-10-26T16:23:20.767Z,69.82
2022-10-26T16:24:20.746Z,69.66
2022-10-26T16:25:20.734Z,70.46
2022-10-26T16:26:20.724Z,70.59
2022-10-26T16:27:20.728Z,71.09
2022-10-26T16:28:20.707Z,71.00
2022-10-26T16:29:20.696Z,71.13
2022-10-26T16:30:20.801Z,70.43
2022-10-26T16:31:20.690Z,70.93
2022-10-26T16:32:20.697Z,70.63
2022-10-26T16:33:20.665Z,70.53
2022-10-26T16:34:20.639Z,70.73
2022-10-26T16:35:20.638Z,70.66
2022-10-26T16:36:20.625Z,69.06
2022-10-26T16:37:20.661Z,69.32
2022-10-26T16:38:20.614Z,69.35
2022-10-26T16:39:20.599Z,68.62
2022-10-26T16:40:20.572Z,69.22
2022-10-26T16:41:20.618Z,69.82
2022-10-26T16:42:20.561Z,69.02
2022-10-26T16:43:20.541Z,68.92
2022-10-26T16:44:20.531Z,68.41
2022-10-26T16:45:20.521Z,68.52
2022-10-26T16:46:20.527Z,68.99
2022-10-26T16:48:20.475Z,68.99
2022-10-26T16:49:20.466Z,69.12
2022-10-26T16:50:20.452Z,68.82
2022-10-26T16:51:20.452Z,68.82
2022-10-26T16:52:20.447Z,68.62
2022-10-26T16:53:20.421Z,69.22
2022-10-26T16:54:20.422Z,69.56
2022-10-26T16:55:20.399Z,69.25
2022-10-26T16:56:20.388Z,69.22
2022-10-26T16:57:20.395Z,68.82
2022-10-26T16:58:20.363Z,69.65
2022-10-26T16:59:20.361Z,69.02
2022-10-26T17:00:20.348Z,70.16
2022-10-26T17:01:20.482Z,70.16
2022-10-26T17:02:20.528Z,71.06
2022-10-26T17:03:20.310Z,71.16
2022-10-26T17:04:20.302Z,70.96
2022-10-26T17:05:20.291Z,71.36
2022-10-26T17:06:20.276Z,71.20
2022-10-26T17:07:20.278Z,71.40
2022-10-26T17:08:20.259Z,72.30
2022-10-26T17:09:20.251Z,71.80
2022-10-26T17:10:20.236Z,71.90
2022-10-26T17:11:20.227Z,71.63
2022-10-26T17:12:20.303Z,71.40
2022-10-26T17:13:20.209Z,72.00
2022-10-26T17:14:20.190Z,71.63
2022-10-26T17:15:21.095Z,70.89
2022-10-26T17:16:20.164Z,71.23
2022-10-26T17:17:20.176Z,70.89
2022-10-26T17:18:20.162Z,71.00
2022-10-26T17:19:20.140Z,71.30
2022-10-26T17:20:20.134Z,71.09
2022-10-26T17:21:20.124Z,71.09
2022-10-26T17:22:20.112Z,70.70
2022-10-26T17:23:20.087Z,70.19
2022-10-26T17:24:20.074Z,70.19
2022-10-26T17:25:20.064Z,70.50
2022-10-26T17:26:20.051Z,69.89
2022-10-26T17:27:20.068Z,69.59
2022-10-26T17:28:20.028Z,69.59
2022-10-26T17:29:20.018Z,70.19
2022-10-26T17:30:20.006Z,70.19
2022-10-26T17:31:19.994Z,70.29
2022-10-26T17:32:20.008Z,70.19
2022-10-26T17:33:19.980Z,70.29
2022-10-26T17:34:19.982Z,70.19
2022-10-26T17:35:19.971Z,71.30
2022-10-26T17:36:19.945Z,71.13
2022-10-26T17:37:20.037Z,71.13
2022-10-26T17:38:19.923Z,71.43
2022-10-26T17:39:19.916Z,72.14
2022-10-26T17:40:19.897Z,71.94
2022-10-26T17:41:19.892Z,72.14
2022-10-26T17:42:19.889Z,71.94
2022-10-26T17:43:19.886Z,71.73
2022-10-26T17:44:19.876Z,71.56
2022-10-26T17:45:19.845Z,71.94
2022-10-26T17:46:19.827Z,72.47
2022-10-26T17:47:19.829Z,71.97
2022-10-26T17:48:19.816Z,72.07
2022-10-26T17:49:23.568Z,71.97
2022-10-26T17:50:20.802Z,72.88
2022-10-26T17:51:19.771Z,71.91
2022-10-26T17:52:19.777Z,71.47
2022-10-26T17:53:20.434Z,72.77
2022-10-26T17:54:19.747Z,72.97
2022-10-26T17:55:19.737Z,72.47
2022-10-26T17:56:19.717Z,73.08
2022-10-26T17:57:19.723Z,72.71
2022-10-26T17:58:19.703Z,73.01
2022-10-26T17:59:19.682Z,73.61
2022-10-26T18:00:19.676Z,73.32
2022-10-26T18:01:19.776Z,73.21
2022-10-26T18:02:19.793Z,73.41
2022-10-26T18:03:19.637Z,73.72
2022-10-26T18:04:19.633Z,74.42
2022-10-26T18:05:19.621Z,74.52
2022-10-26T18:06:19.633Z,74.46
2022-10-26T18:07:19.608Z,74.35
2022-10-26T18:08:19.583Z,73.75
2022-10-26T18:09:19.572Z,74.35
2022-10-26T18:10:36.993Z,74.05
2022-10-26T18:11:25.291Z,74.15
2022-10-26T18:12:20.556Z,74.35
2022-10-26T18:13:19.528Z,74.05
2022-10-26T18:14:19.530Z,74.35
2022-10-26T18:15:19.513Z,74.66
2022-10-26T18:16:19.499Z,74.46
2022-10-26T18:17:19.504Z,74.46
2022-10-26T18:18:19.471Z,74.86
2022-10-26T18:19:19.482Z,74.46
2022-10-26T18:20:19.449Z,74.46
2022-10-26T18:21:19.446Z,74.46
2022-10-26T18:22:19.516Z,74.46
2022-10-26T18:23:19.425Z,74.86
2022-10-26T18:24:19.416Z,74.55
2022-10-26T18:25:19.393Z,75.50
2022-10-26T18:26:19.387Z,75.10
2022-10-26T18:27:19.531Z,75.56
2022-10-26T18:28:19.366Z,76.51
2022-10-26T18:29:19.362Z,76.40
2022-10-26T18:30:19.334Z,76.40
2022-10-26T18:31:19.336Z,76.31
2022-10-26T18:32:19.518Z,76.31
2022-10-26T18:33:19.308Z,76.40
2022-10-26T18:34:19.303Z,76.61
2022-10-26T18:35:19.295Z,76.31
2022-10-26T18:36:19.277Z,76.10
2022-10-26T18:37:19.283Z,76.71
2022-10-26T18:38:19.270Z,76.95
2022-10-26T18:39:19.254Z,77.15
2022-10-26T18:40:19.229Z,77.45
2022-10-26T18:41:19.229Z,76.84
2022-10-26T18:42:19.225Z,77.45
2022-10-26T18:43:19.200Z,77.55
2022-10-26T18:44:19.181Z,77.69
2022-10-26T18:45:19.178Z,77.66
2022-10-26T18:46:21.553Z,78.06
2022-10-26T18:47:19.163Z,78.86
2022-10-26T18:48:19.143Z,78.56
2022-10-26T18:49:19.135Z,78.16
2022-10-26T18:50:19.131Z,78.59
2022-10-26T18:51:19.105Z,78.59
2022-10-26T18:52:19.114Z,78.70
2022-10-26T18:54:19.093Z,78.30
2022-10-26T18:55:19.063Z,78.90
2022-10-26T18:56:19.050Z,78.36
2022-10-26T18:57:19.057Z,78.59
2022-10-26T18:58:19.032Z,78.46
2022-10-26T18:59:19.026Z,78.86
2022-10-26T19:00:19.005Z,78.86
2022-10-26T19:01:19.100Z,78.86
2022-10-26T19:02:18.994Z,78.70
2022-10-26T19:03:18.978Z,78.56
2022-10-26T19:04:18.969Z,78.36
2022-10-26T19:05:18.951Z,78.96
2022-10-26T19:06:18.942Z,78.59
2022-10-26T19:07:18.946Z,78.46
2022-10-26T19:08:18.914Z,78.36
2022-10-26T19:09:18.914Z,78.86
2022-10-26T19:10:18.924Z,78.86
2022-10-26T19:11:18.883Z,78.76
2022-10-26T19:12:18.885Z,78.86
2022-10-26T19:13:18.864Z,78.80
2022-10-26T19:14:18.850Z,79.21
2022-10-26T19:15:18.845Z,79.30
2022-10-26T19:16:33.500Z,78.80
2022-10-26T19:17:19.836Z,79.71
2022-10-26T19:18:18.811Z,79.41
2022-10-26T19:19:18.801Z,79.61
2022-10-26T19:20:18.784Z,79.71
2022-10-26T19:21:18.778Z,80.51
2022-10-26T19:22:18.779Z,80.07
2022-10-26T19:23:18.751Z,80.21
2022-10-26T19:24:18.738Z,79.91
2022-10-26T19:25:18.736Z,80.18
2022-10-26T19:26:18.747Z,80.41
2022-10-26T19:27:18.745Z,80.92
2022-10-26T19:28:18.697Z,80.51
2022-10-26T19:29:18.687Z,80.01
2022-10-26T19:30:18.677Z,80.88
2022-10-26T19:31:19.980Z,80.11
2022-10-26T19:32:18.675Z,80.51
2022-10-26T19:33:18.644Z,80.31
2022-10-26T19:34:18.632Z,80.92
2022-10-26T19:35:18.622Z,80.82
2022-10-26T19:36:18.608Z,80.85
2022-10-26T19:37:18.592Z,80.96
2022-10-26T19:38:18.602Z,81.26
2022-10-26T19:39:18.572Z,81.76
2022-10-26T19:40:18.559Z,81.36
2022-10-26T19:41:18.559Z,81.26
2022-10-26T19:42:18.558Z,81.05
2022-10-26T19:43:18.540Z,81.20
2022-10-26T19:44:19.787Z,81.36
2022-10-26T19:45:18.514Z,82.27
2022-10-26T19:46:18.501Z,82.31
2022-10-26T19:47:18.487Z,82.21
2022-10-26T19:48:18.494Z,82.10
2022-10-26T19:49:18.468Z,82.51
2022-10-26T19:50:18.475Z,82.55
2022-10-26T19:51:18.437Z,82.71
2022-10-26T19:53:18.434Z,82.61
2022-10-26T19:54:18.402Z,82.24
2022-10-26T19:55:18.391Z,82.75
2022-10-26T19:56:18.389Z,82.35
2022-10-26T19:57:18.377Z,82.95
2022-10-26T19:58:18.395Z,82.61
2022-10-26T19:59:18.373Z,82.71
2022-10-26T20:00:18.342Z,82.85
2022-10-26T20:01:18.413Z,82.65
2022-10-26T20:02:18.328Z,83.15
2022-10-26T20:03:18.352Z,83.70
2022-10-26T20:04:18.303Z,83.29
2022-10-26T20:05:18.288Z,84.17
2022-10-26T20:06:18.387Z,83.50
2022-10-26T20:07:18.264Z,84.11
2022-10-26T20:08:18.253Z,84.11
2022-10-26T20:09:18.252Z,84.11
2022-10-26T20:10:18.229Z,83.80
2022-10-26T20:11:18.211Z,84.00
2022-10-26T20:12:18.205Z,84.00
2022-10-26T20:13:18.186Z,84.61
2022-10-26T20:14:18.224Z,84.51
2022-10-26T20:15:18.165Z,84.61
2022-10-26T20:16:18.156Z,84.51
2022-10-26T20:17:18.143Z,84.71
2022-10-26T20:18:18.150Z,84.65
2022-10-26T20:19:18.146Z,84.61
2022-10-26T20:20:18.114Z,84.34
2022-10-26T20:21:18.098Z,85.05
2022-10-26T20:22:18.100Z,85.05
2022-10-26T20:23:18.073Z,84.85
2022-10-26T20:24:18.085Z,84.95
2022-10-26T20:25:18.057Z,84.85
2022-10-26T20:26:19.427Z,85.25
2022-10-26T20:27:18.038Z,85.46
2022-10-26T20:28:18.016Z,85.16
2022-10-26T20:29:18.027Z,84.85
2022-10-26T20:30:18.015Z,84.71
2022-10-26T20:31:17.979Z,84.71
2022-10-26T20:32:17.977Z,84.75
2022-10-26T20:33:17.958Z,84.61
2022-10-26T20:34:18.011Z,84.41
2022-10-26T20:35:17.943Z,84.61
2022-10-26T20:36:17.930Z,84.65
2022-10-26T20:37:17.928Z,84.85
2022-10-26T20:38:17.899Z,84.85
2022-10-26T20:39:17.913Z,84.65